Terminal Aerodrome Forecast
Issued by NWS Atlanta, GA

Current Version | Previous Version | Text Only | Print | Product List | Glossary On
Versions: 1 2 3 4 5 6 7 8 9 10 11 12 13 14 15 16 17 18 19 20 21
000
FTUS42 KFFC 232321
TAFMCN
TAF
KMCN 232321Z 2400/2424 04005KT P6SM SCT025 BKN045
      TEMPO 2400/2402 BKN025
     FM240300 04003KT P6SM FEW250
     FM241400 09003KT P6SM SKC=

USA.gov is the U.S. government's official web portal to all federal, state and local government web resources and services.